createdAt,value
2018-09-25T00:02:22.619Z,42.85
2018-09-25T00:04:57.618Z,42.25
2018-09-25T00:07:32.573Z,42.51
2018-09-25T00:10:07.489Z,41.90
2018-09-25T00:12:43.196Z,42.63
2018-09-25T00:15:18.140Z,41.45
2018-09-25T00:17:52.973Z,41.37
2018-09-25T00:20:27.888Z,41.83
2018-09-25T00:23:03.479Z,43.80
2018-09-25T00:25:38.188Z,42.95
2018-09-25T00:28:13.086Z,42.07
2018-09-25T00:30:47.967Z,41.62
2018-09-25T00:33:24.103Z,42.44
2018-09-25T00:35:58.883Z,42.03
2018-09-25T00:38:33.976Z,41.98
2018-09-25T00:41:08.988Z,42.33
2018-09-25T00:43:44.906Z,41.83
2018-09-25T00:46:19.869Z,40.82
2018-09-25T00:48:54.587Z,43.71
2018-09-25T00:51:29.231Z,43.00
2018-09-25T00:54:04.428Z,40.73
2018-09-25T00:56:39.237Z,41.32
2018-09-25T00:59:14.264Z,38.63
2018-09-25T01:01:49.073Z,44.15
2018-09-25T01:04:24.989Z,39.60
2018-09-25T01:07:00.042Z,37.76
2018-09-25T01:09:34.871Z,38.07
2018-09-25T01:12:09.962Z,42.99
2018-09-25T01:14:45.445Z,37.87
2018-09-25T01:17:20.172Z,42.50
2018-09-25T01:19:55.006Z,39.50
2018-09-25T01:22:29.917Z,40.17
2018-09-25T01:25:05.629Z,39.16
2018-09-25T01:27:40.418Z,39.97
2018-09-25T01:30:15.164Z,40.10
2018-09-25T01:32:50.030Z,40.76
2018-09-25T01:35:25.653Z,44.95
2018-09-25T01:38:00.690Z,40.97
2018-09-25T01:40:35.511Z,41.04
2018-09-25T01:43:10.191Z,40.71
2018-09-25T01:45:45.003Z,43.59
2018-09-25T01:48:19.988Z,41.70
2018-09-25T01:50:54.760Z,40.86
2018-09-25T01:53:29.557Z,41.05
2018-09-25T01:56:04.591Z,40.04
2018-09-25T01:58:39.574Z,40.45
2018-09-25T02:01:14.519Z,40.21
2018-09-25T02:03:49.308Z,43.37
2018-09-25T02:06:25.553Z,40.32
2018-09-25T02:09:00.293Z,40.99
2018-09-25T02:11:35.193Z,43.87
2018-09-25T02:14:10.175Z,41.62
2018-09-25T02:16:45.349Z,41.81
2018-09-25T02:19:20.172Z,41.47
2018-09-25T02:21:55.085Z,40.86
2018-09-25T02:24:29.828Z,39.89
2018-09-25T02:27:05.004Z,40.68
2018-09-25T02:29:39.849Z,44.73
2018-09-25T02:32:14.732Z,40.61
2018-09-25T02:34:49.505Z,41.46
2018-09-25T02:37:24.590Z,44.59
2018-09-25T02:39:59.419Z,41.19
2018-09-25T02:42:34.287Z,41.70
2018-09-25T02:45:09.215Z,42.50
2018-09-25T02:47:44.610Z,41.27
2018-09-25T02:50:19.517Z,42.50
2018-09-25T02:52:54.387Z,41.33
2018-09-25T02:55:29.365Z,40.60
2018-09-25T02:58:05.280Z,41.96
2018-09-25T03:00:40.126Z,41.01
2018-09-25T03:03:14.913Z,41.81
2018-09-25T03:05:49.828Z,39.99
2018-09-25T03:08:25.346Z,41.33
2018-09-25T03:11:00.232Z,44.87
2018-09-25T03:13:35.058Z,40.86
2018-09-25T03:16:09.879Z,42.04
2018-09-25T03:18:45.521Z,41.75
2018-09-25T03:21:20.381Z,41.70
2018-09-25T03:23:55.453Z,42.46
2018-09-25T03:26:30.260Z,43.33
2018-09-25T03:29:05.915Z,43.42
2018-09-25T03:31:40.620Z,45.54
2018-09-25T03:34:15.466Z,42.41
2018-09-25T03:36:50.318Z,40.97
2018-09-25T03:39:25.912Z,40.41
2018-09-25T03:42:00.609Z,40.43
2018-09-25T03:44:35.633Z,41.04
2018-09-25T03:47:10.430Z,39.50
2018-09-25T03:49:45.769Z,38.73
2018-09-25T03:52:20.628Z,45.11
2018-09-25T03:54:55.552Z,39.30
2018-09-25T03:57:30.254Z,37.78
2018-09-25T04:00:05.605Z,39.42
2018-09-25T04:02:40.529Z,38.16
2018-09-25T04:05:15.274Z,39.66
2018-09-25T04:07:50.150Z,38.15
2018-09-25T04:10:26.015Z,38.89
2018-09-25T04:13:00.903Z,38.36
2018-09-25T04:15:35.677Z,37.79
2018-09-25T04:18:10.495Z,38.10
2018-09-25T04:20:46.732Z,39.51
2018-09-25T04:23:21.655Z,38.60
2018-09-25T04:25:56.751Z,38.56
2018-09-25T04:28:31.635Z,38.85
2018-09-25T04:31:08.129Z,39.18
2018-09-25T04:33:43.946Z,39.96
2018-09-25T04:36:18.848Z,40.08
2018-09-25T04:38:53.728Z,37.69
2018-09-25T04:41:28.720Z,39.66
2018-09-25T04:44:03.425Z,40.31
2018-09-25T04:46:38.226Z,41.19
2018-09-25T04:49:13.068Z,38.07
2018-09-25T04:51:48.674Z,39.03
2018-09-25T04:54:24.470Z,41.35
2018-09-25T04:56:59.334Z,38.75
2018-09-25T04:59:34.252Z,41.26
2018-09-25T05:02:09.837Z,39.61
2018-09-25T05:04:44.784Z,41.78
2018-09-25T05:07:19.433Z,39.02
2018-09-25T05:09:54.563Z,38.37
2018-09-25T05:12:29.272Z,43.71
2018-09-25T05:15:04.278Z,38.71
2018-09-25T05:17:39.234Z,39.75
2018-09-25T05:20:14.131Z,38.74
2018-09-25T05:22:50.435Z,37.60
2018-09-25T05:25:25.996Z,42.80
2018-09-25T05:28:01.351Z,41.92
2018-09-25T05:30:36.249Z,35.95
2018-09-25T05:33:12.071Z,37.25
2018-09-25T05:35:46.866Z,37.61
2018-09-25T05:38:21.623Z,37.85
2018-09-25T05:40:56.496Z,36.97
2018-09-25T05:43:31.825Z,37.83
2018-09-25T05:46:06.559Z,36.56
2018-09-25T05:48:41.314Z,38.07
2018-09-25T05:51:16.026Z,36.55
2018-09-25T05:53:51.199Z,39.88
2018-09-25T05:56:26.150Z,42.16
2018-09-25T05:59:00.958Z,36.28
2018-09-25T06:01:35.758Z,34.74
2018-09-25T06:04:10.700Z,37.19
2018-09-25T06:06:45.618Z,35.12
2018-09-25T06:09:20.660Z,34.39
2018-09-25T06:11:55.648Z,34.49
2018-09-25T06:14:30.936Z,33.93
2018-09-25T06:17:05.844Z,33.61
2018-09-25T06:19:40.828Z,32.90
2018-09-25T06:22:15.970Z,35.28
2018-09-25T06:24:52.274Z,32.31
2018-09-25T06:27:27.633Z,33.12
2018-09-25T06:30:02.738Z,32.20
2018-09-25T06:32:37.556Z,33.16
2018-09-25T06:35:13.600Z,30.89
2018-09-25T06:37:48.762Z,32.69
2018-09-25T06:40:23.522Z,32.78
2018-09-25T06:42:58.506Z,38.14
2018-09-25T06:45:34.198Z,31.01
2018-09-25T06:48:09.178Z,32.35
2018-09-25T06:50:44.165Z,29.56
2018-09-25T06:53:19.151Z,29.93
2018-09-25T06:55:55.111Z,29.44
2018-09-25T06:58:30.007Z,29.91
2018-09-25T07:01:04.787Z,27.83
2018-09-25T07:03:39.672Z,29.02
2018-09-25T07:06:15.413Z,25.98
2018-09-25T07:08:50.173Z,26.55
2018-09-25T07:11:25.159Z,25.42
2018-09-25T07:13:59.999Z,25.99
2018-09-25T07:16:35.668Z,23.71
2018-09-25T07:19:10.546Z,25.31
2018-09-25T07:21:45.419Z,24.25
2018-09-25T07:24:20.416Z,24.10
2018-09-25T07:26:55.140Z,24.92
2018-09-25T07:29:30.024Z,33.32
2018-09-25T07:32:04.689Z,29.78
2018-09-25T07:34:39.486Z,24.96
2018-09-25T07:37:14.906Z,20.88
2018-09-25T07:39:49.729Z,28.62
2018-09-25T07:42:24.681Z,22.48
2018-09-25T07:44:59.531Z,21.94
2018-09-25T07:47:34.698Z,22.02
2018-09-25T07:50:09.528Z,24.01
2018-09-25T07:52:44.382Z,19.45
2018-09-25T07:55:19.209Z,25.52
2018-09-25T07:57:55.621Z,26.13
2018-09-25T08:00:30.646Z,20.23
2018-09-25T08:03:05.396Z,22.00
2018-09-25T08:05:40.177Z,19.75
2018-09-25T08:08:15.564Z,18.83
2018-09-25T08:10:50.483Z,18.67
2018-09-25T08:13:25.285Z,17.32
2018-09-25T08:16:00.228Z,14.68
2018-09-25T08:18:35.949Z,13.21
2018-09-25T08:21:10.933Z,13.56
2018-09-25T08:23:45.656Z,13.05
2018-09-25T08:26:20.413Z,13.46
2018-09-25T08:28:55.629Z,12.73
2018-09-25T08:31:30.435Z,12.47
2018-09-25T08:34:05.366Z,12.62
2018-09-25T08:36:40.138Z,13.18
2018-09-25T08:39:15.969Z,13.30
2018-09-25T08:41:50.592Z,11.09
2018-09-25T08:44:25.582Z,11.64
2018-09-25T08:47:00.209Z,11.86
2018-09-25T08:49:35.554Z,12.41
2018-09-25T08:52:10.443Z,10.92
2018-09-25T08:54:45.221Z,11.56
2018-09-25T08:57:20.013Z,11.36
2018-09-25T08:59:56.334Z,9.82
2018-09-25T09:02:31.314Z,10.89
2018-09-25T09:05:06.128Z,10.63
2018-09-25T09:07:40.905Z,8.87
2018-09-25T09:10:16.811Z,8.67
2018-09-25T09:12:51.577Z,8.35
2018-09-25T09:15:26.476Z,6.79
2018-09-25T09:18:01.389Z,11.10
2018-09-25T09:20:37.316Z,10.90
2018-09-25T09:23:12.342Z,10.92
2018-09-25T09:25:47.161Z,10.24
2018-09-25T09:28:22.038Z,10.81
2018-09-25T09:30:57.834Z,10.53
2018-09-25T09:33:32.425Z,10.47
2018-09-25T09:36:07.272Z,9.77
2018-09-25T09:38:42.082Z,9.04
2018-09-25T09:41:18.004Z,7.84
2018-09-25T09:43:52.901Z,9.56
2018-09-25T09:46:27.789Z,9.83
2018-09-25T09:49:02.527Z,10.14
2018-09-25T09:51:37.509Z,10.87
2018-09-25T09:54:12.371Z,10.74
2018-09-25T09:56:47.142Z,10.15
2018-09-25T09:59:21.878Z,9.40
2018-09-25T10:01:57.749Z,9.76
2018-09-25T10:04:32.489Z,9.76
2018-09-25T10:07:07.007Z,9.80
2018-09-25T10:09:41.693Z,9.24
2018-09-25T10:12:17.489Z,9.81
2018-09-25T10:14:52.414Z,10.63
2018-09-25T10:17:27.440Z,10.12
2018-09-25T10:20:02.053Z,11.47
2018-09-25T10:22:37.459Z,10.36
2018-09-25T10:25:12.341Z,11.47
2018-09-25T10:27:47.358Z,10.51
2018-09-25T10:30:22.284Z,11.71
2018-09-25T10:32:57.086Z,12.08
2018-09-25T10:35:32.039Z,10.66
2018-09-25T10:38:06.826Z,9.52
2018-09-25T10:40:41.731Z,11.70
2018-09-25T10:43:16.739Z,11.35
2018-09-25T10:45:51.570Z,11.31
2018-09-25T10:48:26.495Z,10.71
2018-09-25T10:51:01.429Z,10.96
2018-09-25T10:53:37.282Z,10.63
2018-09-25T10:56:12.193Z,11.48
2018-09-25T10:58:46.951Z,9.67
2018-09-25T11:01:21.644Z,9.25
2018-09-25T11:03:57.239Z,8.98
2018-09-25T11:06:32.163Z,9.67
2018-09-25T11:09:07.236Z,9.16
2018-09-25T11:11:42.096Z,10.36
2018-09-25T11:14:17.770Z,9.15
2018-09-25T11:16:52.671Z,10.64
2018-09-25T11:19:27.520Z,8.92
2018-09-25T11:22:02.313Z,7.90
2018-09-25T11:24:37.241Z,8.68
2018-09-25T11:27:12.050Z,7.15
2018-09-25T11:29:46.896Z,7.98
2018-09-25T11:32:21.871Z,7.93
2018-09-25T11:34:57.093Z,8.24
2018-09-25T11:37:31.929Z,7.75
2018-09-25T11:40:06.802Z,8.26
2018-09-25T11:42:41.661Z,7.49
2018-09-25T11:45:16.993Z,7.82
2018-09-25T11:47:51.938Z,5.92
2018-09-25T11:50:26.730Z,6.70
2018-09-25T11:53:01.628Z,6.23
2018-09-25T11:55:36.605Z,6.26
2018-09-25T11:58:11.703Z,6.85
2018-09-25T12:00:46.730Z,7.58
2018-09-25T12:03:21.516Z,7.21
2018-09-25T12:05:58.056Z,7.22
2018-09-25T12:08:32.916Z,7.03
2018-09-25T12:11:07.893Z,6.94
2018-09-25T12:13:42.736Z,6.49
2018-09-25T12:16:19.473Z,6.37
2018-09-25T12:18:54.251Z,7.37
2018-09-25T12:21:28.959Z,6.49
2018-09-25T12:24:03.872Z,5.92
2018-09-25T12:26:39.520Z,5.86
2018-09-25T12:29:14.309Z,7.09
2018-09-25T12:31:49.116Z,7.99
2018-09-25T12:34:24.006Z,8.19
2018-09-25T12:36:59.710Z,7.41
2018-09-25T12:39:34.514Z,8.23
2018-09-25T12:42:09.609Z,8.00
2018-09-25T12:44:44.415Z,7.92
2018-09-25T12:47:19.382Z,7.67
2018-09-25T12:50:01.314Z,8.17
2018-09-25T12:52:36.186Z,7.78
2018-09-25T12:55:11.210Z,8.51
2018-09-25T12:57:46.123Z,7.61
2018-09-25T13:00:20.821Z,8.45
2018-09-25T13:02:55.701Z,8.97
2018-09-25T13:05:30.796Z,8.91
2018-09-25T13:08:05.681Z,9.70
2018-09-25T13:10:40.386Z,9.12
2018-09-25T13:13:15.224Z,7.23
2018-09-25T13:15:50.506Z,7.90
2018-09-25T13:18:25.478Z,8.79
2018-09-25T13:21:00.165Z,8.31
2018-09-25T13:23:34.881Z,8.39
2018-09-25T13:26:09.645Z,8.65
2018-09-25T13:28:44.400Z,8.89
2018-09-25T13:31:19.233Z,7.81
2018-09-25T13:33:53.967Z,8.62
2018-09-25T13:36:29.519Z,7.47
2018-09-25T13:39:04.476Z,8.96
2018-09-25T13:41:39.397Z,9.59
2018-09-25T13:44:14.283Z,9.67
2018-09-25T13:46:49.681Z,9.50
2018-09-25T13:49:24.405Z,8.96
2018-09-25T13:51:59.214Z,9.44
2018-09-25T13:54:33.861Z,8.68
2018-09-25T13:57:09.181Z,8.57
2018-09-25T13:59:43.989Z,8.71
2018-09-25T14:02:18.629Z,8.55
2018-09-25T14:04:53.450Z,8.03
2018-09-25T14:07:28.694Z,8.50
2018-09-25T14:10:04.046Z,8.76
2018-09-25T14:12:39.087Z,8.32
2018-09-25T14:15:14.057Z,9.15
2018-09-25T14:17:49.332Z,9.44
2018-09-25T14:20:24.127Z,9.34
2018-09-25T14:22:59.161Z,9.69
2018-09-25T14:25:33.990Z,9.82
2018-09-25T14:28:09.744Z,9.85
2018-09-25T14:30:44.612Z,9.59
2018-09-25T14:33:19.453Z,10.54
2018-09-25T14:35:54.291Z,10.25
2018-09-25T14:38:29.825Z,10.22
2018-09-25T14:41:04.606Z,10.13
2018-09-25T14:43:39.595Z,9.84
2018-09-25T14:46:14.299Z,10.11
2018-09-25T14:48:49.930Z,10.52
2018-09-25T14:51:24.627Z,11.81
2018-09-25T14:53:59.453Z,10.53
2018-09-25T14:56:34.270Z,11.53
2018-09-25T14:59:10.013Z,11.31
2018-09-25T15:01:44.831Z,11.21
2018-09-25T15:04:19.549Z,11.75
2018-09-25T15:06:54.360Z,12.17
2018-09-25T15:09:29.230Z,12.88
2018-09-25T15:12:04.413Z,13.27
2018-09-25T15:14:39.232Z,13.46
2018-09-25T15:17:14.137Z,13.01
2018-09-25T15:19:49.579Z,13.71
2018-09-25T15:22:24.489Z,14.26
2018-09-25T15:24:59.412Z,15.16
2018-09-25T15:27:34.274Z,14.87
2018-09-25T15:30:09.940Z,16.66
2018-09-25T15:32:44.973Z,15.64
2018-09-25T15:35:19.791Z,16.93
2018-09-25T15:37:54.546Z,16.48
2018-09-25T15:40:29.942Z,17.60
2018-09-25T15:43:04.850Z,16.59
2018-09-25T15:45:39.724Z,17.11
2018-09-25T15:48:14.649Z,17.60
2018-09-25T15:50:50.618Z,17.98
2018-09-25T15:53:25.548Z,17.80
2018-09-25T15:56:00.483Z,17.67
2018-09-25T15:58:35.370Z,17.93
2018-09-25T16:01:10.782Z,19.08
2018-09-25T16:03:45.673Z,18.44
2018-09-25T16:06:20.706Z,17.75
2018-09-25T16:08:55.550Z,17.89
2018-09-25T16:11:30.614Z,17.69
2018-09-25T16:14:06.008Z,18.46
2018-09-25T16:16:40.785Z,17.89
2018-09-25T16:19:15.579Z,18.07
2018-09-25T16:21:51.351Z,18.07
2018-09-25T16:24:26.225Z,19.40
2018-09-25T16:27:01.229Z,17.81
2018-09-25T16:29:36.079Z,18.27
2018-09-25T16:32:12.128Z,18.57
2018-09-25T16:34:46.886Z,18.56
2018-09-25T16:37:21.833Z,18.71
2018-09-25T16:39:56.751Z,19.03
2018-09-25T16:42:32.478Z,18.51
2018-09-25T16:45:07.472Z,19.53
2018-09-25T16:47:42.388Z,19.57
2018-09-25T16:50:17.233Z,19.40
2018-09-25T16:52:53.073Z,19.20
2018-09-25T16:55:27.895Z,19.15
2018-09-25T16:58:02.781Z,19.77
2018-09-25T17:00:37.732Z,19.46
2018-09-25T17:03:13.758Z,20.40
2018-09-25T17:05:48.616Z,19.89
2018-09-25T17:08:23.605Z,21.20
2018-09-25T17:10:58.354Z,21.24
2018-09-25T17:13:33.321Z,20.64
2018-09-25T17:16:08.759Z,21.09
2018-09-25T17:18:43.558Z,20.35
2018-09-25T17:21:18.468Z,20.95
2018-09-25T17:23:53.514Z,20.91
2018-09-25T17:26:28.465Z,20.40
2018-09-25T17:29:03.449Z,20.77
2018-09-25T17:31:38.308Z,21.90
2018-09-25T17:34:14.327Z,21.68
2018-09-25T17:36:49.089Z,23.22
2018-09-25T17:39:23.837Z,22.79
2018-09-25T17:41:58.748Z,22.67
2018-09-25T17:44:33.485Z,23.19
2018-09-25T17:47:08.345Z,22.85
2018-09-25T17:49:43.198Z,21.98
2018-09-25T17:52:18.084Z,22.23
2018-09-25T17:54:54.036Z,22.61
2018-09-25T17:57:28.706Z,22.06
2018-09-25T18:00:03.420Z,21.76
2018-09-25T18:02:38.359Z,21.86
2018-09-25T18:05:13.873Z,21.02
2018-09-25T18:07:48.695Z,21.60
2018-09-25T18:10:23.593Z,22.00
2018-09-25T18:12:58.325Z,22.64
2018-09-25T18:15:33.702Z,23.39
2018-09-25T18:18:08.931Z,23.74
2018-09-25T18:20:43.635Z,24.60
2018-09-25T18:23:18.425Z,26.00
2018-09-25T18:25:53.890Z,25.74
2018-09-25T18:28:28.950Z,25.50
2018-09-25T18:31:03.765Z,26.12
2018-09-25T18:33:38.673Z,25.48
2018-09-25T18:36:13.992Z,25.55
2018-09-25T18:38:49.123Z,26.32
2018-09-25T18:41:23.881Z,25.55
2018-09-25T18:43:58.658Z,26.27
2018-09-25T18:46:33.935Z,26.53
2018-09-25T18:49:08.806Z,27.23
2018-09-25T18:51:43.524Z,27.10
2018-09-25T18:54:18.260Z,26.86
2018-09-25T18:56:53.134Z,27.90
2018-09-25T18:59:27.924Z,27.26
2018-09-25T19:02:02.709Z,27.29
2018-09-25T19:04:37.477Z,26.87
2018-09-25T19:07:12.941Z,26.88
2018-09-25T19:09:47.616Z,27.35
2018-09-25T19:12:22.378Z,25.79
2018-09-25T19:14:57.270Z,26.77
2018-09-25T19:17:32.659Z,26.74
2018-09-25T19:20:07.666Z,27.07
2018-09-25T19:22:42.297Z,26.93
2018-09-25T19:25:17.261Z,26.59
2018-09-25T19:27:52.264Z,26.17
2018-09-25T19:30:27.226Z,26.56
2018-09-25T19:33:02.133Z,27.25
2018-09-25T19:35:36.792Z,26.85
2018-09-25T19:38:12.429Z,27.73
2018-09-25T19:40:47.309Z,26.21
2018-09-25T19:43:22.053Z,26.25
2018-09-25T19:45:56.917Z,25.73
2018-09-25T19:48:32.687Z,26.34
2018-09-25T19:51:07.226Z,27.40
2018-09-25T19:53:42.075Z,27.57
2018-09-25T19:56:17.099Z,28.16
2018-09-25T19:58:51.763Z,28.01
2018-09-25T20:01:26.509Z,28.20
2018-09-25T20:04:01.120Z,28.22
2018-09-25T20:06:36.135Z,27.94
2018-09-25T20:09:13.942Z,28.63
2018-09-25T20:11:48.958Z,28.47
2018-09-25T20:14:24.008Z,27.60
2018-09-25T20:16:58.938Z,27.15
2018-09-25T20:19:34.815Z,27.88
2018-09-25T20:22:09.969Z,28.07
2018-09-25T20:24:44.724Z,28.63
2018-09-25T20:27:19.453Z,28.23
2018-09-25T20:29:54.724Z,28.48
2018-09-25T20:32:29.330Z,28.54
2018-09-25T20:35:04.119Z,27.94
2018-09-25T20:37:38.977Z,28.69
2018-09-25T20:40:14.709Z,28.72
2018-09-25T20:42:49.386Z,28.34
2018-09-25T20:45:24.265Z,28.51
2018-09-25T20:47:59.105Z,28.27
2018-09-25T20:50:34.150Z,29.57
2018-09-25T20:53:08.876Z,28.46
2018-09-25T20:55:43.572Z,28.84
2018-09-25T20:58:18.318Z,29.16
2018-09-25T21:00:54.297Z,29.69
2018-09-25T21:03:29.228Z,28.36
2018-09-25T21:06:04.026Z,27.84
2018-09-25T21:08:38.989Z,28.66
2018-09-25T21:11:14.853Z,28.68
2018-09-25T21:13:49.816Z,29.08
2018-09-25T21:16:24.716Z,29.31
2018-09-25T21:18:59.553Z,29.15
2018-09-25T21:21:35.174Z,28.64
2018-09-25T21:24:10.188Z,29.49
2018-09-25T21:26:45.189Z,29.16
2018-09-25T21:29:19.972Z,29.85
2018-09-25T21:31:54.845Z,29.92
2018-09-25T21:34:29.545Z,28.40
2018-09-25T21:37:04.550Z,28.65
2018-09-25T21:39:39.244Z,29.36
2018-09-25T21:42:14.702Z,28.99
2018-09-25T21:44:49.599Z,29.41
2018-09-25T21:47:24.382Z,29.77
2018-09-25T21:49:59.212Z,29.78
2018-09-25T21:52:34.408Z,29.71
2018-09-25T21:55:09.314Z,30.42
2018-09-25T21:57:44.259Z,30.12
2018-09-25T22:00:19.085Z,30.52
2018-09-25T22:02:53.928Z,30.48
2018-09-25T22:05:28.685Z,29.43
2018-09-25T22:08:03.499Z,29.82
2018-09-25T22:10:38.496Z,30.37
2018-09-25T22:13:14.073Z,29.91
2018-09-25T22:15:48.889Z,31.01
2018-09-25T22:18:23.928Z,29.74
2018-09-25T22:20:58.777Z,29.24
2018-09-25T22:23:34.546Z,33.15
2018-09-25T22:26:09.926Z,29.71
2018-09-25T22:28:44.703Z,30.01
2018-09-25T22:31:19.563Z,29.01
2018-09-25T22:33:55.383Z,28.90
2018-09-25T22:36:30.753Z,28.33
2018-09-25T22:39:05.704Z,27.30
2018-09-25T22:41:40.774Z,26.69
2018-09-25T22:44:15.627Z,26.49
2018-09-25T22:46:50.637Z,27.09
2018-09-25T22:49:25.353Z,27.08
2018-09-25T22:52:00.216Z,27.44
2018-09-25T22:54:35.486Z,27.53
2018-09-25T22:57:10.282Z,29.96
2018-09-25T22:59:45.378Z,29.36
2018-09-25T23:02:20.337Z,30.89
2018-09-25T23:04:55.182Z,31.36
2018-09-25T23:07:30.069Z,30.58
2018-09-25T23:10:04.961Z,31.86
2018-09-25T23:12:39.928Z,30.66
2018-09-25T23:15:15.345Z,30.53
2018-09-25T23:17:50.242Z,30.44
2018-09-25T23:20:25.087Z,30.03
2018-09-25T23:22:59.970Z,28.87
2018-09-25T23:25:35.350Z,29.73
2018-09-25T23:28:10.789Z,29.53
2018-09-25T23:30:46.366Z,29.63
2018-09-25T23:33:21.508Z,29.59
2018-09-25T23:35:56.428Z,30.04
2018-09-25T23:38:31.341Z,30.58
2018-09-25T23:41:11.923Z,30.41
2018-09-25T23:43:45.764Z,29.54
2018-09-25T23:46:21.945Z,29.52
2018-09-25T23:48:58.503Z,28.68
2018-09-25T23:52:05.796Z,29.07
2018-09-25T23:54:54.244Z,28.82
2018-09-25T23:57:30.249Z,28.87
